sim
Sign-in with your pilot id or email,
or register
Callsign
Passwort

Schedule Details

Flight Number: OEO6703
Departure: Addis Ababa Bole Airport (HAAB) at 04:15
Arrival: Munich Airport (EDDM) at 11:40

Weather Information
Getting current METAR information for HAAB 240700Z 19006KT 9999 SCT025 18/13 Q1027
Getting current METAR information for EDDM 240720Z 24008KT 9999 FEW035 BKN080 15/13 Q1010 NOSIG

Schedule Frequency

Route Map